Latest Weather Observations for Frankston

IDV60801

Issued at 4:12 pm EDT Monday 30 March 2020 (issued every 10 minutes, with the page automatically refreshed every 10 minutes)

About weather observations | Map of weather stations | Latest weather observations for VIC | Other Formats
Station Details ID: 086371 Name: FRANKSTON AWS Lat: -38.15 Lon: 145.12 Height: 6.0 m
Data from the previous 72 hours. | See also: Recent months at Frankston
Date/Time
EDT
Temp
°C
App
Temp
°C
Dew
Point
°C
Rel
Hum
%
Delta-T
°C
Wind Press
QNH
hPa
Press
MSL
hPa
Rain since
9am
mm
Dir  Spd
km/h
Gust
km/h
Spd
kts
Gust
kts
30/04:00pm - - - - - NW 11 13 6 7 - - -
30/03:30pm - - - - - NW 9 11 5 6 - - -
30/03:00pm - - - - - WNW 19 24 10 13 - - -
30/02:30pm - - - - - WNW 20 26 11 14 - - -
30/02:00pm - - - - - WNW 22 28 12 15 - - -
30/01:30pm - - - - - WNW 22 26 12 14 - - -
30/01:00pm - - - - - WNW 19 24 10 13 - - -
30/12:30pm - - - - - NW 20 26 11 14 - - -
30/12:00pm - - - - - NW 19 24 10 13 - - -
30/11:30am - - - - - WNW 22 28 12 15 - - -
30/11:00am - - - - - WNW 24 28 13 15 - - -
30/10:30am - - - - - WNW 28 32 15 17 - - -
30/10:00am - - - - - WNW 30 33 16 18 - - -
30/09:30am - - - - - WNW 28 33 15 18 - - -
30/09:00am - - - - - W 28 33 15 18 - - -
30/08:30am - - - - - WNW 22 26 12 14 - - -
30/08:00am - - - - - W 17 22 9 12 - - -
30/07:30am - - - - - W 19 24 10 13 - - -
30/07:00am - - - - - W 22 28 12 15 - - -
30/06:30am - - - - - W 20 30 11 16 - - -
30/06:00am - - - - - WNW 17 22 9 12 - - -
30/05:30am - - - - - W 19 22 10 12 - - -
30/05:00am - - - - - W 24 28 13 15 - - -
30/04:30am - - - - - W 28 32 15 17 - - -
30/04:00am - - - - - WNW 26 30 14 16 - - -
30/03:30am - - - - - WNW 20 26 11 14 - - -
30/03:00am - - - - - W 19 24 10 13 - - -
30/02:30am - - - - - SW 9 13 5 7 - - -
30/02:00am - - - - - SW 15 17 8 9 - - -
30/01:30am - - - - - SW 15 19 8 10 - - -
30/01:00am - - - - - WSW 9 13 5 7 - - -
30/12:30am - - - - - SW 17 28 9 15 - - -
30/12:00am - - - - - WNW 17 22 9 12 - - -
 
Date/Time
EDT
Temp
°C
App
Temp
°C
Dew
Point
°C
Rel
Hum
%
Delta-T
°C
Wind Press
QNH
hPa
Press
MSL
hPa
Rain since
9am
mm
Dir  Spd
km/h
Gust
km/h
Spd
kts
Gust
kts
29/11:30pm - - - - - NW 15 19 8 10 - - -
29/11:00pm - - - - - WNW 20 26 11 14 - - -
29/10:30pm - - - - - NE 7 11 4 6 - - -
29/10:00pm - - - - - NNE 13 17 7 9 - - -
29/09:30pm - - - - - NE 13 20 7 11 - - -
29/09:00pm - - - - - NNE 19 26 10 14 - - -
29/08:30pm - - - - - NNE 20 30 11 16 - - -
29/08:00pm - - - - - NE 15 28 8 15 - - -
29/07:30pm - - - - - NE 13 17 7 9 - - -
29/07:00pm - - - - - ENE 9 20 5 11 - - -
29/06:30pm - - - - - NE 13 20 7 11 - - -
29/06:00pm - - - - - ENE 11 15 6 8 - - -
29/05:30pm - - - - - E 13 22 7 12 - - -
29/05:00pm - - - - - ENE 19 30 10 16 - - -
29/04:30pm - - - - - NE 15 22 8 12 - - -
29/04:00pm - - - - - NNE 17 20 9 11 - - -
29/03:30pm - - - - - NNW 20 26 11 14 - - -
29/03:13pm - - - - - WNW 33 43 18 23 - - -
29/03:00pm - - - - - W 46 69 25 37 - - -
29/02:45pm - - - - - NW 32 59 17 32 - - -
29/02:43pm - - - - - NW 28 50 15 27 - - -
29/02:30pm - - - - - N 33 43 18 23 - - -
29/02:00pm - - - - - N 37 48 20 26 - - -
29/01:30pm - - - - - N 39 48 21 26 - - -
29/01:00pm - - - - - NNE 37 48 20 26 - - -
29/12:30pm - - - - - NNE 43 52 23 28 - - -
29/12:00pm - - - - - NNE 33 44 18 24 - - -
29/11:32am - - - - - N 37 56 20 30 - - -
29/11:30am - - - - - N 39 56 21 30 - - -
29/11:24am - - - - - NNE 37 56 20 30 - - -
29/11:00am - - - - - NNE 33 41 18 22 - - -
29/10:30am - - - - - NNE 32 41 17 22 - - -
29/10:00am - - - - - NNE 28 35 15 19 - - -
29/09:30am - - - - - NNE 24 30 13 16 - - -
29/09:00am - - - - - NNE 17 24 9 13 - - -
29/08:30am - - - - - NE 15 26 8 14 - - -
29/08:00am - - - - - NE 13 22 7 12 - - -
29/07:30am - - - - - NE 11 19 6 10 - - -
29/07:00am - - - - - NE 11 17 6 9 - - -
29/06:30am - - - - - NE 15 28 8 15 - - -
29/06:00am - - - - - NE 13 22 7 12 - - -
29/05:30am - - - - - NE 15 26 8 14 - - -
29/05:00am - - - - - NNE 17 26 9 14 - - -
29/04:30am - - - - - NNE 19 26 10 14 - - -
29/04:00am - - - - - NE 15 20 8 11 - - -
29/03:30am - - - - - NE 13 17 7 9 - - -
29/03:00am - - - - - NE 13 24 7 13 - - -
29/02:30am - - - - - NE 15 26 8 14 - - -
29/02:00am - - - - - NE 13 20 7 11 - - -
29/01:30am - - - - - ENE 11 17 6 9 - - -
29/01:00am - - - - - E 9 15 5 8 - - -
29/12:30am - - - - - E 11 15 6 8 - - -
29/12:00am - - - - - E 11 15 6 8 - - -
 
Date/Time
EDT
Temp
°C
App
Temp
°C
Dew
Point
°C
Rel
Hum
%
Delta-T
°C
Wind Press
QNH
hPa
Press
MSL
hPa
Rain since
9am
mm
Dir  Spd
km/h
Gust
km/h
Spd
kts
Gust
kts
28/11:30pm - - - - - E 11 15 6 8 - - -
28/11:00pm - - - - - ENE 11 15 6 8 - - -
28/10:30pm - - - - - ENE 11 19 6 10 - - -
28/10:00pm - - - - - ENE 11 13 6 7 - - -
28/09:30pm - - - - - ENE 11 17 6 9 - - -
28/09:00pm - - - - - ENE 11 15 6 8 - - -
28/08:30pm - - - - - E 11 15 6 8 - - -
28/08:00pm - - - - - ENE 11 15 6 8 - - -
28/07:30pm - - - - - NE 13 17 7 9 - - -
28/07:00pm - - - - - NNE 15 20 8 11 - - -
28/06:30pm - - - - - NNE 19 28 10 15 - - -
28/06:00pm - - - - - NNE 20 26 11 14 - - -
28/05:30pm - - - - - N 19 26 10 14 - - -
28/05:00pm - - - - - N 22 28 12 15 - - -
28/04:30pm - - - - - N 20 26 11 14 - - -
28/04:00pm - - - - - N 24 28 13 15 - - -
28/03:30pm - - - - - N 20 26 11 14 - - -
28/03:00pm - - - - - N 20 26 11 14 - - -
28/02:30pm - - - - - N 22 26 12 14 - - -
28/02:00pm - - - - - N 22 28 12 15 - - -
28/01:30pm - - - - - N 17 24 9 13 - - -
28/01:00pm - - - - - N 17 26 9 14 - - -
28/12:30pm - - - - - N 19 22 10 12 - - -
28/12:00pm - - - - - N 19 22 10 12 - - -
28/11:30am - - - - - N 20 26 11 14 - - -
28/11:00am - - - - - NNE 22 32 12 17 - - -
28/10:30am - - - - - NNE 24 33 13 18 - - -
28/10:00am - - - - - NE 15 20 8 11 - - -
28/09:30am - - - - - ENE 9 13 5 7 - - -
28/09:00am - - - - - ESE 9 11 5 6 - - -
28/08:30am - - - - - ESE 7 9 4 5 - - -
28/08:00am - - - - - E 9 13 5 7 - - -
28/07:30am - - - - - ESE 9 15 5 8 - - -
28/07:00am - - - - - ESE 9 15 5 8 - - -
28/06:30am - - - - - ESE 9 13 5 7 - - -
28/06:00am - - - - - SE 9 11 5 6 - - -
28/05:30am - - - - - SE 9 11 5 6 - - -
28/05:00am - - - - - SE 11 13 6 7 - - -
28/04:30am - - - - - SE 11 11 6 6 - - -
28/04:00am - - - - - SE 11 13 6 7 - - -
28/03:30am - - - - - SE 11 13 6 7 - - -
28/03:00am - - - - - SE 13 15 7 8 - - -
28/02:30am - - - - - ESE 7 13 4 7 - - -
28/02:00am - - - - - SE 17 20 9 11 - - -
28/01:30am - - - - - SE 17 24 9 13 - - -
28/01:00am - - - - - SE 13 19 7 10 - - -
28/12:30am - - - - - SE 15 19 8 10 - - -
28/12:00am - - - - - ESE 15 19 8 10 - - -
 
Date/Time
EDT
Temp
°C
App
Temp
°C
Dew
Point
°C
Rel
Hum
%
Delta-T
°C
Wind Press
QNH
hPa
Press
MSL
hPa
Rain since
9am
mm
Dir  Spd
km/h
Gust
km/h
Spd
kts
Gust
kts
27/11:30pm - - - - - ESE 13 17 7 9 - - -
27/11:00pm - - - - - ESE 13 17 7 9 - - -
27/10:30pm - - - - - ESE 11 17 6 9 - - -
27/10:00pm - - - - - ESE 13 19 7 10 - - -
27/09:30pm - - - - - ESE 13 20 7 11 - - -
27/09:00pm - - - - - SE 13 20 7 11 - - -
27/08:30pm - - - - - SSE 13 24 7 13 - - -
27/08:00pm - - - - - SSE 13 19 7 10 - - -
27/07:30pm - - - - - SSE 15 20 8 11 - - -
27/07:00pm - - - - - SSE 15 24 8 13 - - -
27/06:30pm - - - - - SE 15 22 8 12 - - -
27/06:00pm - - - - - SE 13 19 7 10 - - -
27/05:30pm - - - - - SSW 13 17 7 9 - - -
27/05:00pm - - - - - W 7 11 4 6 - - -
27/04:30pm - - - - - WSW 9 9 5 5 - - -

Other formats

Comma delimited format used in spreadsheet applications
http://www.bom.gov.au/fwo/IDV60801/IDV60801.94871.axf

JavaScript Object Notation format (JSON) in row-major order
http://www.bom.gov.au/fwo/IDV60801/IDV60801.94871.json

Data quality

Most of these data are generated automatically and are frequently updated. Quality checks on data are not normally performed. It is possible for incorrect values to appear. Refer to information at About Latest Weather Observations and please check the disclaimer before using these data.